createdAt,value
2017-12-12T00:00:38.754Z,8.10
2017-12-12T00:03:07.772Z,8.20
2017-12-12T00:05:35.978Z,8.10
2017-12-12T00:08:04.225Z,8.10
2017-12-12T00:10:32.470Z,8.10
2017-12-12T00:13:00.702Z,8.10
2017-12-12T00:15:29.662Z,8.20
2017-12-12T00:17:58.674Z,8.20
2017-12-12T00:20:26.893Z,8.10
2017-12-12T00:22:55.182Z,8.20
2017-12-12T00:25:23.687Z,8.20
2017-12-12T00:27:52.785Z,8.30
2017-12-12T00:30:21.997Z,8.40
2017-12-12T00:32:50.570Z,8.30
2017-12-12T00:35:19.566Z,8.30
2017-12-12T00:37:47.791Z,8.30
2017-12-12T00:40:16.014Z,8.40
2017-12-12T00:42:44.252Z,8.40
2017-12-12T00:45:12.482Z,8.40
2017-12-12T00:47:40.723Z,8.50
2017-12-12T00:50:09.727Z,8.40
2017-12-12T00:52:38.724Z,8.40
2017-12-12T00:55:07.714Z,8.40
2017-12-12T00:57:35.959Z,8.40
2017-12-12T01:00:04.177Z,8.40
2017-12-12T01:02:32.396Z,8.40
2017-12-12T01:05:00.622Z,8.30
2017-12-12T01:07:28.886Z,8.30
2017-12-12T01:09:57.121Z,8.30
2017-12-12T01:12:25.354Z,8.30
2017-12-12T01:14:53.581Z,8.30
2017-12-12T01:17:21.830Z,8.30
2017-12-12T01:19:50.066Z,8.40
2017-12-12T01:22:18.295Z,8.40
2017-12-12T01:24:46.591Z,8.40
2017-12-12T01:27:15.695Z,8.40
2017-12-12T01:29:43.879Z,8.40
2017-12-12T01:32:12.110Z,8.40
2017-12-12T01:34:40.402Z,8.40
2017-12-12T01:37:09.442Z,8.50
2017-12-12T01:39:37.678Z,8.40
2017-12-12T01:42:06.690Z,8.50
2017-12-12T01:44:34.911Z,8.40
2017-12-12T01:47:03.147Z,8.50
2017-12-12T01:49:31.364Z,8.50
2017-12-12T01:51:59.594Z,8.50
2017-12-12T01:54:27.822Z,8.40
2017-12-12T01:56:56.863Z,8.30
2017-12-12T01:59:25.324Z,8.30
2017-12-12T02:01:53.699Z,8.30
2017-12-12T02:04:22.699Z,8.20
2017-12-12T02:06:51.799Z,8.20
2017-12-12T02:09:20.787Z,8.20
2017-12-12T02:11:49.803Z,8.10
2017-12-12T02:14:18.018Z,8.10
2017-12-12T02:16:46.242Z,8.10
2017-12-12T02:19:14.487Z,8.10
2017-12-12T02:21:42.710Z,8.10
2017-12-12T02:24:10.922Z,8.10
2017-12-12T02:26:39.426Z,8.10
2017-12-12T02:29:08.421Z,8.20
2017-12-12T02:31:36.668Z,8.10
2017-12-12T02:34:04.898Z,8.20
2017-12-12T02:36:33.348Z,8.30
2017-12-12T02:39:01.911Z,8.20
2017-12-12T02:41:30.138Z,8.30
2017-12-12T02:43:58.372Z,8.30
2017-12-12T02:46:26.608Z,8.30
2017-12-12T02:48:55.139Z,8.30
2017-12-12T02:51:24.151Z,8.20
2017-12-12T02:53:52.387Z,8.10
2017-12-12T02:56:20.623Z,8.10
2017-12-12T02:58:48.858Z,8.10
2017-12-12T03:01:17.864Z,8.00
2017-12-12T03:03:46.107Z,7.90
2017-12-12T03:06:14.324Z,7.90
2017-12-12T03:08:42.544Z,7.90
2017-12-12T03:11:10.787Z,7.90
2017-12-12T03:13:39.017Z,8.00
2017-12-12T03:16:07.274Z,8.00
2017-12-12T03:18:35.499Z,8.00
2017-12-12T03:21:03.742Z,8.00
2017-12-12T03:23:32.740Z,8.10
2017-12-12T03:26:01.749Z,8.20
2017-12-12T03:28:30.727Z,8.10
2017-12-12T03:30:59.723Z,8.20
2017-12-12T03:33:27.962Z,8.20
2017-12-12T03:35:56.982Z,8.20
2017-12-12T03:38:25.984Z,8.20
2017-12-12T03:40:54.208Z,8.20
2017-12-12T03:43:22.443Z,8.20
2017-12-12T03:45:50.670Z,8.20
2017-12-12T03:48:18.893Z,8.30
2017-12-12T03:50:47.117Z,8.20
2017-12-12T03:53:16.124Z,8.10
2017-12-12T03:55:44.350Z,8.10
2017-12-12T03:58:12.587Z,8.10
2017-12-12T04:00:41.586Z,8.00
2017-12-12T04:03:10.003Z,8.00
2017-12-12T04:05:38.245Z,8.10
2017-12-12T04:08:06.471Z,8.10
2017-12-12T04:10:35.806Z,8.10
2017-12-12T04:13:04.802Z,8.10
2017-12-12T04:15:33.030Z,8.00
2017-12-12T04:18:02.056Z,8.00
2017-12-12T04:20:30.287Z,8.00
2017-12-12T04:22:58.510Z,8.00
2017-12-12T04:25:27.502Z,7.90
2017-12-12T04:27:56.508Z,7.80
2017-12-12T04:30:25.518Z,7.80
2017-12-12T04:32:53.745Z,7.70
2017-12-12T04:35:21.968Z,7.70
2017-12-12T04:37:50.195Z,7.60
2017-12-12T04:40:18.414Z,7.60
2017-12-12T04:42:46.642Z,7.50
2017-12-12T04:45:15.663Z,7.40
2017-12-12T04:47:44.655Z,7.20
2017-12-12T04:50:13.629Z,7.10
2017-12-12T04:52:41.878Z,7.10
2017-12-12T04:55:10.085Z,7.00
2017-12-12T04:57:38.750Z,6.70
2017-12-12T05:00:06.979Z,6.40
2017-12-12T05:02:35.195Z,6.30
2017-12-12T05:05:04.223Z,5.90
2017-12-12T05:07:33.201Z,5.70
2017-12-12T05:10:01.429Z,5.60
2017-12-12T05:12:29.647Z,5.30
2017-12-12T05:14:57.874Z,4.90
2017-12-12T05:17:26.076Z,4.40
2017-12-12T05:19:54.386Z,4.10
2017-12-12T05:22:22.574Z,3.80
2017-12-12T05:24:50.816Z,3.70
2017-12-12T05:27:19.037Z,3.60
2017-12-12T05:29:47.262Z,3.50
2017-12-12T05:32:15.489Z,3.50
2017-12-12T05:34:43.722Z,3.50
2017-12-12T05:37:12.711Z,3.40
2017-12-12T05:39:40.930Z,3.30
2017-12-12T05:42:09.155Z,3.40
2017-12-12T05:44:37.377Z,3.40
2017-12-12T05:47:05.610Z,3.40
2017-12-12T05:49:34.602Z,3.30
2017-12-12T05:52:03.635Z,3.20
2017-12-12T05:54:31.861Z,3.20
2017-12-12T05:57:00.094Z,3.30
2017-12-12T05:59:28.635Z,3.20
2017-12-12T06:01:57.635Z,3.20
2017-12-12T06:04:26.631Z,3.10
2017-12-12T06:06:55.634Z,3.10
2017-12-12T06:09:23.846Z,3.10
2017-12-12T06:11:52.083Z,3.10
2017-12-12T06:14:21.857Z,3.00
2017-12-12T06:16:50.877Z,2.90
2017-12-12T06:19:19.850Z,2.90
2017-12-12T06:21:48.853Z,3.00
2017-12-12T06:24:17.830Z,3.00
2017-12-12T06:26:46.114Z,2.90
2017-12-12T06:29:15.118Z,2.90
2017-12-12T06:31:44.106Z,2.90
2017-12-12T06:34:13.116Z,2.90
2017-12-12T06:36:41.331Z,2.80
2017-12-12T06:39:09.567Z,2.90
2017-12-12T06:41:37.774Z,2.90
2017-12-12T06:44:06.066Z,2.90
2017-12-12T06:46:34.315Z,2.90
2017-12-12T06:49:02.555Z,2.80
2017-12-12T06:51:32.761Z,2.70
2017-12-12T06:54:00.962Z,2.70
2017-12-12T06:56:29.182Z,2.70
2017-12-12T06:58:58.270Z,2.70
2017-12-12T07:01:26.502Z,2.60
2017-12-12T07:03:55.598Z,2.60
2017-12-12T07:06:23.811Z,2.50
2017-12-12T07:08:52.031Z,2.50
2017-12-12T07:11:20.264Z,2.50
2017-12-12T07:13:48.501Z,2.50
2017-12-12T07:16:16.737Z,2.40
2017-12-12T07:18:44.958Z,2.50
2017-12-12T07:21:13.188Z,2.50
2017-12-12T07:23:41.401Z,2.50
2017-12-12T07:26:09.671Z,2.50
2017-12-12T07:28:38.686Z,2.50
2017-12-12T07:31:06.938Z,2.50
2017-12-12T07:33:35.182Z,2.50
2017-12-12T07:36:03.436Z,2.50
2017-12-12T07:38:31.689Z,2.60
2017-12-12T07:41:00.020Z,2.50
2017-12-12T07:43:28.283Z,2.60
2017-12-12T07:45:57.283Z,2.50
2017-12-12T07:48:26.290Z,2.60
2017-12-12T07:50:54.534Z,2.50
2017-12-12T07:53:22.787Z,2.60
2017-12-12T07:55:51.008Z,2.60
2017-12-12T07:58:20.010Z,2.70
2017-12-12T08:00:48.241Z,2.60
2017-12-12T08:03:16.476Z,2.70
2017-12-12T08:05:44.714Z,2.60
2017-12-12T08:08:12.971Z,2.60
2017-12-12T08:10:41.213Z,2.60
2017-12-12T08:13:09.522Z,2.60
2017-12-12T08:15:37.763Z,2.60
2017-12-12T08:18:05.975Z,2.70
2017-12-12T08:20:35.007Z,2.70
2017-12-12T08:23:03.226Z,2.60
2017-12-12T08:25:31.478Z,2.70
2017-12-12T08:27:59.763Z,2.70
2017-12-12T08:30:28.016Z,2.70
2017-12-12T08:32:56.256Z,2.60
2017-12-12T08:35:24.496Z,2.60
2017-12-12T08:37:52.739Z,2.50
2017-12-12T08:40:20.994Z,2.50
2017-12-12T08:42:50.028Z,2.60
2017-12-12T08:45:18.247Z,2.60
2017-12-12T08:47:46.480Z,2.60
2017-12-12T08:50:14.691Z,2.70
2017-12-12T08:52:42.929Z,2.70
2017-12-12T08:55:11.707Z,2.80
2017-12-12T08:57:39.943Z,2.70
2017-12-12T09:00:08.935Z,2.80
2017-12-12T09:02:37.166Z,2.70
2017-12-12T09:05:05.391Z,2.80
2017-12-12T09:07:33.863Z,2.80
2017-12-12T09:10:02.062Z,2.80
2017-12-12T09:12:30.305Z,2.80
2017-12-12T09:14:58.530Z,2.90
2017-12-12T09:17:26.760Z,3.00
2017-12-12T09:19:55.771Z,3.00
2017-12-12T09:22:23.993Z,2.90
2017-12-12T09:24:52.240Z,3.00
2017-12-12T09:27:20.470Z,3.00
2017-12-12T09:29:49.454Z,3.10
2017-12-12T09:32:17.702Z,3.00
2017-12-12T09:34:45.951Z,3.10
2017-12-12T09:37:14.172Z,3.10
2017-12-12T09:39:42.410Z,3.10
2017-12-12T09:42:11.771Z,3.10
2017-12-12T09:44:40.782Z,3.10
2017-12-12T09:47:08.997Z,3.10
2017-12-12T09:49:37.347Z,3.10
2017-12-12T09:52:05.902Z,3.20
2017-12-12T09:54:34.084Z,3.20
2017-12-12T09:57:02.306Z,3.10
2017-12-12T09:59:30.532Z,3.20
2017-12-12T10:01:59.538Z,3.20
2017-12-12T10:04:27.763Z,3.10
2017-12-12T10:06:56.011Z,3.20
2017-12-12T10:09:24.239Z,3.20
2017-12-12T10:11:52.483Z,3.30
2017-12-12T10:14:20.704Z,3.30
2017-12-12T10:16:48.928Z,3.40
2017-12-12T10:19:17.139Z,3.40
2017-12-12T10:21:46.135Z,3.30
2017-12-12T10:24:14.374Z,3.30
2017-12-12T10:26:43.445Z,3.30
2017-12-12T10:29:12.498Z,3.30
2017-12-12T10:31:40.762Z,3.30
2017-12-12T10:34:09.243Z,3.40
2017-12-12T10:36:38.241Z,3.50
2017-12-12T10:39:07.536Z,3.50
2017-12-12T10:41:36.514Z,3.50
2017-12-12T10:44:04.751Z,3.50
2017-12-12T10:46:32.972Z,3.60
2017-12-12T10:49:02.001Z,3.70
2017-12-12T10:51:30.218Z,3.60
2017-12-12T10:53:58.431Z,3.70
2017-12-12T10:56:26.671Z,3.70
2017-12-12T10:58:55.893Z,3.70
2017-12-12T11:01:24.078Z,3.80
2017-12-12T11:03:52.310Z,3.80
2017-12-12T11:06:20.540Z,3.80
2017-12-12T11:08:48.773Z,3.90
2017-12-12T11:11:17.005Z,3.90
2017-12-12T11:13:45.227Z,3.90
2017-12-12T11:16:13.479Z,3.90
2017-12-12T11:18:41.709Z,3.90
2017-12-12T11:21:09.927Z,3.80
2017-12-12T11:23:38.155Z,3.80
2017-12-12T11:26:06.386Z,3.90
2017-12-12T11:28:34.613Z,3.70
2017-12-12T11:31:02.842Z,3.70
2017-12-12T11:33:31.121Z,3.70
2017-12-12T11:36:00.130Z,3.80
2017-12-12T11:38:29.123Z,3.80
2017-12-12T11:40:58.217Z,3.80
2017-12-12T11:43:26.406Z,3.70
2017-12-12T11:45:55.395Z,3.80
2017-12-12T11:48:23.634Z,3.70
2017-12-12T11:50:51.858Z,3.70
2017-12-12T11:53:20.081Z,3.70
2017-12-12T11:55:49.098Z,3.60
2017-12-12T11:58:17.298Z,3.60
2017-12-12T12:00:45.527Z,3.70
2017-12-12T12:03:13.751Z,3.70
2017-12-12T12:05:41.990Z,3.60
2017-12-12T12:08:10.205Z,3.60
2017-12-12T12:10:38.859Z,3.60
2017-12-12T12:13:07.851Z,3.60
2017-12-12T12:15:36.859Z,3.70
2017-12-12T12:18:05.851Z,3.70
2017-12-12T12:20:34.841Z,3.70
2017-12-12T12:23:03.063Z,3.60
2017-12-12T12:25:31.440Z,3.70
2017-12-12T12:28:00.602Z,3.70
2017-12-12T12:30:28.822Z,3.70
2017-12-12T12:32:57.346Z,3.70
2017-12-12T12:35:25.564Z,3.70
2017-12-12T12:37:53.805Z,3.80
2017-12-12T12:40:22.035Z,3.80
2017-12-12T12:42:50.292Z,3.80
2017-12-12T12:45:18.812Z,3.80
2017-12-12T12:47:47.006Z,3.80
2017-12-12T12:50:15.230Z,3.90
2017-12-12T12:52:43.482Z,4.00
2017-12-12T12:55:12.198Z,4.10
2017-12-12T12:57:40.426Z,4.00
2017-12-12T13:00:08.653Z,4.10
2017-12-12T13:35:27.210Z,3.40
2017-12-12T13:37:56.227Z,3.30
2017-12-12T13:40:24.456Z,3.20
2017-12-12T13:42:52.714Z,3.30
2017-12-12T13:45:20.952Z,3.30
2017-12-12T13:47:49.190Z,3.30
2017-12-12T13:50:17.427Z,3.20
2017-12-12T13:52:45.657Z,3.20
2017-12-12T13:55:14.678Z,3.00
2017-12-12T13:57:42.929Z,3.00
2017-12-12T14:00:11.939Z,2.90
2017-12-12T14:02:40.926Z,2.90
2017-12-12T14:05:09.181Z,2.90
2017-12-12T14:07:38.195Z,2.90
2017-12-12T14:10:06.434Z,2.80
2017-12-12T14:12:34.680Z,2.80
2017-12-12T14:15:02.932Z,2.80
2017-12-12T14:17:31.185Z,2.80
2017-12-12T14:20:00.199Z,2.70
2017-12-12T14:22:28.438Z,2.70
2017-12-12T14:24:56.656Z,2.70
2017-12-12T14:27:24.882Z,2.70
2017-12-12T14:29:53.168Z,2.70
2017-12-12T14:32:21.416Z,2.80
2017-12-12T14:34:50.044Z,2.80
2017-12-12T14:37:18.275Z,2.80
2017-12-12T14:39:46.528Z,2.80
2017-12-12T14:42:14.842Z,2.80
2017-12-12T14:44:43.078Z,2.80
2017-12-12T14:47:11.310Z,2.90
2017-12-12T14:49:40.594Z,2.90
2017-12-12T14:52:08.811Z,2.80
2017-12-12T14:54:37.067Z,2.80
2017-12-12T14:57:05.318Z,2.80
2017-12-12T14:59:34.343Z,2.90
2017-12-12T15:02:02.575Z,2.80
2017-12-12T15:04:31.617Z,2.80
2017-12-12T15:06:59.843Z,2.80
2017-12-12T15:09:28.074Z,2.90
2017-12-12T15:11:56.316Z,2.80
2017-12-12T15:14:25.320Z,2.90
2017-12-12T15:16:53.711Z,2.80
2017-12-12T15:19:21.944Z,2.80
2017-12-12T15:21:50.178Z,2.90
2017-12-12T15:24:18.442Z,2.90
2017-12-12T15:26:46.706Z,2.80
2017-12-12T15:29:14.955Z,2.90
2017-12-12T15:31:43.975Z,2.90
2017-12-12T15:34:13.003Z,2.80
2017-12-12T15:36:41.256Z,2.90
2017-12-12T15:39:09.510Z,2.90
2017-12-12T15:41:38.015Z,3.00
2017-12-12T15:44:06.267Z,2.90
2017-12-12T15:46:34.527Z,2.90
2017-12-12T15:49:02.805Z,2.90
2017-12-12T15:51:31.819Z,2.80
2017-12-12T15:54:00.067Z,2.80
2017-12-12T15:56:29.080Z,2.80
2017-12-12T15:58:57.358Z,2.80
2017-12-12T16:01:25.627Z,2.80
2017-12-12T16:03:54.038Z,2.80
2017-12-12T16:06:22.326Z,2.80
2017-12-12T16:08:50.590Z,2.80
2017-12-12T16:11:18.840Z,2.70
2017-12-12T16:13:47.113Z,2.70
2017-12-12T16:16:15.375Z,2.80
2017-12-12T16:18:43.609Z,2.70
2017-12-12T16:21:11.862Z,2.70
2017-12-12T16:23:40.107Z,2.70
2017-12-12T16:26:08.367Z,2.70
2017-12-12T16:28:37.397Z,2.70
2017-12-12T16:31:05.683Z,2.60
2017-12-12T16:33:33.941Z,2.60
2017-12-12T16:36:02.221Z,2.70
2017-12-12T16:38:30.476Z,2.70
2017-12-12T16:40:58.734Z,2.70
2017-12-12T16:43:27.030Z,2.70
2017-12-12T16:45:55.317Z,2.70
2017-12-12T16:48:23.583Z,2.70
2017-12-12T16:50:51.840Z,2.60
2017-12-12T16:53:20.887Z,2.60
2017-12-12T16:55:49.166Z,2.50
2017-12-12T16:58:17.525Z,2.60
2017-12-12T17:00:45.867Z,2.60
2017-12-12T17:03:14.879Z,2.70
2017-12-12T17:05:43.110Z,2.70
2017-12-12T17:08:11.351Z,2.70
2017-12-12T17:10:39.611Z,2.80
2017-12-12T17:13:08.177Z,2.80
2017-12-12T17:15:36.431Z,2.80
2017-12-12T17:18:04.999Z,2.90
2017-12-12T17:20:34.036Z,2.90
2017-12-12T17:23:02.280Z,2.90
2017-12-12T17:40:20.934Z,3.00
2017-12-12T17:42:49.943Z,3.00
2017-12-12T17:45:18.966Z,3.00
2017-12-12T17:47:47.924Z,3.10
2017-12-12T17:50:16.933Z,3.10
2017-12-12T17:52:45.159Z,3.00
2017-12-12T17:55:13.365Z,3.10
2017-12-12T17:57:42.374Z,3.10
2017-12-12T18:00:11.386Z,3.10
2017-12-12T18:02:39.628Z,3.10
2017-12-12T18:05:08.612Z,3.20
2017-12-12T18:07:37.615Z,3.30
2017-12-12T18:10:06.628Z,3.40
2017-12-12T18:12:34.874Z,3.30
2017-12-12T18:15:03.207Z,3.40
2017-12-12T18:17:31.443Z,3.40
2017-12-12T18:19:59.666Z,3.40
2017-12-12T18:22:27.887Z,3.40
2017-12-12T18:24:56.879Z,3.50
2017-12-12T18:27:25.880Z,3.50
2017-12-12T18:29:54.102Z,3.40
2017-12-12T18:32:23.100Z,3.50
2017-12-12T18:34:51.315Z,3.40
2017-12-12T18:37:19.555Z,3.50
2017-12-12T18:39:47.850Z,3.50
2017-12-12T18:42:17.250Z,3.60
2017-12-12T18:44:45.484Z,3.50
2017-12-12T18:47:13.725Z,3.60
2017-12-12T18:49:41.978Z,3.70
2017-12-12T18:52:10.202Z,3.80
2017-12-12T18:54:38.457Z,3.70
2017-12-12T18:57:07.435Z,3.70
2017-12-12T18:59:35.718Z,3.70
2017-12-12T19:02:03.967Z,3.70
2017-12-12T19:04:32.968Z,3.70
2017-12-12T19:07:01.996Z,3.80
2017-12-12T19:09:30.227Z,3.70
2017-12-12T19:11:58.441Z,3.70
2017-12-12T19:14:26.668Z,3.70
2017-12-12T19:16:55.708Z,3.60
2017-12-12T19:19:24.260Z,3.60
2017-12-12T19:21:52.530Z,3.60
2017-12-12T19:24:20.742Z,3.60
2017-12-12T19:26:48.962Z,3.60
2017-12-12T19:29:17.206Z,3.60
2017-12-12T19:31:45.434Z,3.60
2017-12-12T19:34:14.478Z,3.60
2017-12-12T19:36:42.717Z,3.50
2017-12-12T19:39:11.757Z,3.60
2017-12-12T19:41:40.706Z,3.60
2017-12-12T19:44:09.760Z,3.60
2017-12-12T19:46:38.063Z,3.50
2017-12-12T19:49:06.370Z,3.60
2017-12-12T19:51:34.640Z,3.50
2017-12-12T19:54:02.911Z,3.50
2017-12-12T19:56:31.614Z,3.60
2017-12-12T19:58:59.916Z,3.60
2017-12-12T20:01:28.136Z,3.60
2017-12-12T20:03:57.152Z,3.60
2017-12-12T20:06:25.386Z,3.50
2017-12-12T20:08:53.814Z,3.60
2017-12-12T20:11:22.989Z,3.60
2017-12-12T20:13:51.552Z,3.60
2017-12-12T20:16:19.863Z,3.60
2017-12-12T20:18:48.917Z,3.70
2017-12-12T20:21:17.188Z,3.60
2017-12-12T20:23:46.217Z,3.70
2017-12-12T20:26:14.552Z,3.60
2017-12-12T20:28:43.566Z,3.60
2017-12-12T20:31:11.789Z,3.50
2017-12-12T20:33:40.027Z,3.50
2017-12-12T20:36:08.334Z,3.50
2017-12-12T20:38:36.562Z,3.50
2017-12-12T20:41:05.572Z,3.60
2017-12-12T20:43:34.512Z,3.50
2017-12-12T20:46:02.715Z,3.60
2017-12-12T20:48:30.967Z,3.60
2017-12-12T20:50:59.210Z,3.60
2017-12-12T20:53:27.473Z,3.60
2017-12-12T20:55:56.471Z,3.50
2017-12-12T20:58:24.726Z,3.40
2017-12-12T21:00:52.969Z,3.40
2017-12-12T21:03:21.982Z,3.50
2017-12-12T21:05:51.164Z,3.50
2017-12-12T21:08:24.319Z,3.40
2017-12-12T21:10:52.786Z,3.50
2017-12-12T21:13:21.768Z,3.50
2017-12-12T21:15:50.187Z,3.50
2017-12-12T21:21:16.187Z,3.40
2017-12-12T21:23:44.443Z,3.30
2017-12-12T21:26:12.683Z,3.20
2017-12-12T21:28:41.702Z,3.10
2017-12-12T21:31:09.980Z,3.00
2017-12-12T21:33:38.235Z,3.00
2017-12-12T21:36:06.515Z,2.90
2017-12-12T21:38:35.566Z,2.80
2017-12-12T21:41:03.860Z,2.70
2017-12-12T21:43:32.874Z,2.70
2017-12-12T21:46:01.871Z,2.60
2017-12-12T21:48:30.135Z,2.60
2017-12-12T21:50:58.390Z,2.60
2017-12-12T21:53:26.622Z,2.60
2017-12-12T21:55:54.870Z,2.50
2017-12-12T22:01:22.022Z,2.40
2017-12-12T22:03:50.274Z,2.50
2017-12-12T22:06:18.572Z,2.50
2017-12-12T22:08:46.768Z,2.50
2017-12-12T22:11:15.765Z,2.70
2017-12-12T22:13:44.042Z,2.60
2017-12-12T22:16:13.047Z,2.90
2017-12-12T22:18:41.278Z,2.90
2017-12-12T22:21:09.575Z,3.00
2017-12-12T22:23:37.771Z,3.10
2017-12-12T22:26:06.041Z,3.20
2017-12-12T22:28:34.270Z,3.20
2017-12-12T22:31:02.529Z,3.30
2017-12-12T22:33:30.791Z,3.40
2017-12-12T22:35:59.015Z,3.50
2017-12-12T22:38:27.304Z,3.40
2017-12-12T22:40:55.502Z,3.30
2017-12-12T22:43:24.563Z,3.30
2017-12-12T22:45:53.585Z,3.10
2017-12-12T22:48:21.841Z,3.00
2017-12-12T22:50:50.844Z,3.00
2017-12-12T22:53:19.084Z,3.00
2017-12-12T22:55:47.319Z,3.00
2017-12-12T22:58:15.565Z,2.90
2017-12-12T23:00:43.794Z,2.80
2017-12-12T23:03:12.050Z,2.80
2017-12-12T23:05:40.288Z,2.70
2017-12-12T23:08:09.290Z,2.70
2017-12-12T23:10:38.451Z,2.60
2017-12-12T23:13:06.689Z,2.60
2017-12-12T23:15:34.945Z,2.60
2017-12-12T23:18:03.210Z,2.60
2017-12-12T23:20:31.484Z,2.50
2017-12-12T23:22:59.717Z,2.50
2017-12-12T23:25:27.937Z,2.50
2017-12-12T23:27:56.167Z,2.50
2017-12-12T23:30:25.222Z,2.50
2017-12-12T23:32:53.438Z,2.40
2017-12-12T23:35:21.668Z,2.40
2017-12-12T23:37:49.915Z,2.40
2017-12-12T23:40:18.910Z,2.30
2017-12-12T23:42:47.149Z,2.30
2017-12-12T23:45:16.855Z,2.30
2017-12-12T23:47:45.115Z,2.30
2017-12-12T23:50:13.359Z,2.30
2017-12-12T23:52:41.602Z,2.20
2017-12-12T23:55:10.611Z,2.30
2017-12-12T23:57:39.907Z,2.20
